| time (UTC) | temp F | wind direction | speed MPH | gust MPH | rain 1hr in | rain 24hr in | rain mn in | humidity % | barometer mb |
| 20260510033514 | 52 | 301 | 3.0 | 7.0 | 0.00 | 0.21 | 0.21 | 78 | 1007.4 |
| 20260510033014 | 52 | 312 | 2.0 | 4.0 | 0.00 | 0.21 | 0.21 | 78 | 1007.2 |
| 20260510032515 | 52 | 309 | 2.0 | 4.0 | 0.00 | 0.21 | 0.21 | 79 | 1007.4 |
| 20260510032015 | 52 | 289 | 2.0 | 6.0 | 0.00 | 0.21 | 0.21 | 79 | 1007.3 |
| 20260510031514 | 52 | 279 | 2.0 | 6.0 | 0.01 | 0.21 | 0.21 | 79 | 1007.2 |
| 20260510031015 | 52 | 283 | 2.0 | 7.0 | 0.01 | 0.21 | 0.21 | 81 | 1007.1 |
| 20260510030516 | 52 | 295 | 2.0 | 9.0 | 0.01 | 0.21 | 0.21 | 82 | 1006.9 |
| 20260510030017 | 53 | 327 | 2.0 | 9.0 | 0.01 | 0.21 | 0.21 | 84 | 1006.8 |
| 20260510025537 | 53 | 322 | 2.0 | 7.0 | 0.01 | 0.21 | 0.21 | 85 | 1006.8 |
| 20260510025016 | 54 | 297 | 3.0 | 8.0 | 0.01 | 0.21 | 0.21 | 85 | 1007.0 |
| 20260510024517 | 54 | 295 | 3.0 | 8.0 | 0.01 | 0.21 | 0.21 | 87 | 1007.1 |
| 20260510024037 | 54 | 289 | 3.0 | 9.0 | 0.01 | 0.21 | 0.21 | 87 | 1007.1 |
| 20260510023516 | 54 | 292 | 4.0 | 9.0 | 0.01 | 0.21 | 0.21 | 88 | 1007.0 |
| 20260510023016 | 54 | 299 | 3.0 | 13.0 | 0.01 | 0.21 | 0.21 | 87 | 1007.0 |
| 20260510022517 | 55 | 304 | 4.0 | 13.0 | 0.01 | 0.21 | 0.21 | 87 | 1006.9 |
| 20260510022016 | 55 | 303 | 4.0 | 10.0 | 0.01 | 0.21 | 0.21 | 87 | 1006.8 |
| 20260510021516 | 55 | 277 | 4.0 | 10.0 | 0.00 | 0.20 | 0.20 | 87 | 1006.9 |
| 20260510021016 | 55 | 276 | 4.0 | 8.0 | 0.00 | 0.20 | 0.20 | 87 | 1006.6 |
| 20260510020515 | 55 | 276 | 2.0 | 7.0 | 0.00 | 0.20 | 0.20 | 87 | 1006.3 |
| 20260510020016 | 55 | 279 | 2.0 | 7.0 | 0.00 | 0.20 | 0.20 | 87 | 1006.1 |
| 20260510015538 | 55 | 262 | 3.0 | 11.0 | 0.00 | 0.20 | 0.20 | 87 | 1006.0 |
| 20260510015016 | 55 | 267 | 3.0 | 11.0 | 0.00 | 0.20 | 0.20 | 87 | 1006.0 |
| 20260510014516 | 55 | 243 | 2.0 | 8.0 | 0.00 | 0.20 | 0.20 | 87 | 1005.9 |
| 20260510014036 | 55 | 254 | 3.0 | 7.0 | 0.00 | 0.20 | 0.20 | 87 | 1005.9 |
| 20260510013536 | 55 | 249 | 2.0 | 6.0 | 0.00 | 0.20 | 0.20 | 87 | 1005.7 |
| 20260510013016 | 54 | 229 | 2.0 | 7.0 | 0.00 | 0.20 | 0.20 | 87 | 1005.6 |
| 20260510012516 | 54 | 232 | 3.0 | 7.0 | 0.00 | 0.20 | 0.20 | 87 | 1005.5 |
| 20260510012016 | 54 | 239 | 2.0 | 5.0 | 0.00 | 0.20 | 0.20 | 87 | 1005.2 |
| 20260510011517 | 54 | 226 | 2.0 | 7.0 | 0.00 | 0.20 | 0.20 | 87 | 1005.0 |
| 20260510011016 | 54 | 237 | 3.0 | 7.0 | 0.00 | 0.20 | 0.20 | 86 | 1004.9 |
| 20260510010516 | 54 | 218 | 2.0 | 4.0 | 0.00 | 0.20 | 0.20 | 86 | 1004.8 |
| 20260510010016 | 54 | 231 | 1.0 | 5.0 | 0.00 | 0.20 | 0.20 | 86 | 1004.7 |
| 20260510005516 | 55 | 254 | 2.0 | 5.0 | 0.00 | 0.20 | 0.20 | 85 | 1004.5 |
| 20260510005016 | 55 | 247 | 1.0 | 4.0 | 0.00 | 0.20 | 0.20 | 85 | 1004.4 |
| 20260510004516 | 55 | 253 | 1.0 | 7.0 | 0.00 | 0.20 | 0.20 | 85 | 1004.5 |
| 20260510004036 | 55 | 247 | 2.0 | 7.0 | 0.00 | 0.20 | 0.20 | 84 | 1004.5 |
| 20260510003516 | 55 | 231 | 2.0 | 5.0 | 0.00 | 0.20 | 0.20 | 84 | 1004.3 |
| 20260510003016 | 55 | 213 | 2.0 | 10.0 | 0.00 | 0.20 | 0.20 | 84 | 1004.3 |
| 20260510002516 | 55 | 227 | 3.0 | 11.0 | 0.00 | 0.20 | 0.20 | 83 | 1004.2 |
| 20260510002016 | 55 | 221 | 4.0 | 11.0 | 0.00 | 0.20 | 0.20 | 83 | 1004.1 |
| 20260510001516 | 55 | 214 | 4.0 | 12.0 | 0.00 | 0.20 | 0.20 | 83 | 1004.0 |
| 20260510001016 | 55 | 215 | 6.0 | 14.0 | 0.00 | 0.20 | 0.20 | 84 | 1004.0 |
| 20260510000516 | 55 | 234 | 6.0 | 14.0 | 0.00 | 0.20 | 0.20 | 84 | 1004.1 |
| 20260510000016 | 55 | 228 | 4.0 | 11.0 | 0.00 | 0.20 | 0.20 | 85 | 1004.0 |
| 20260509235516 | 55 | 226 | 5.0 | 13.0 | 0.00 | 0.20 | 0.20 | 85 | 1003.9 |
| 20260509235036 | 55 | 228 | 5.0 | 13.0 | 0.00 | 0.20 | 0.20 | 85 | 1003.8 |
| 20260509234516 | 55 | 227 | 5.0 | 11.0 | 0.00 | 0.20 | 0.20 | 86 | 1003.6 |
| 20260509234016 | 55 | 216 | 4.0 | 11.0 | 0.00 | 0.20 | 0.20 | 87 | 1003.4 |
| 20260509233516 | 55 | 214 | 3.0 | 10.0 | 0.00 | 0.20 | 0.20 | 87 | 1003.3 |
| 20260509233036 | 55 | 209 | 4.0 | 10.0 | 0.00 | 0.20 | 0.20 | 87 | 1003.2 |
| 20260509232536 | 55 | 208 | 5.0 | 9.0 | 0.00 | 0.20 | 0.20 | 87 | 1003.1 |
| 20260509232016 | 55 | 203 | 5.0 | 10.0 | 0.00 | 0.20 | 0.20 | 88 | 1003.1 |
| 20260509231536 | 55 | 209 | 4.0 | 10.0 | 0.00 | 0.20 | 0.20 | 88 | 1003.1 |
| 20260509231016 | 55 | 246 | 3.0 | 10.0 | 0.00 | 0.20 | 0.20 | 89 | 1003.0 |
| 20260509230536 | 55 | 352 | 4.0 | 10.0 | 0.00 | 0.20 | 0.20 | 89 | 1002.9 |
| 20260509230016 | 55 | 0 | 3.0 | 10.0 | 0.00 | 0.20 | 0.20 | 90 | 1002.8 |
| 20260509225516 | 55 | 0 | 3.0 | 9.0 | 0.01 | 0.20 | 0.20 | 90 | 1002.8 |
| 20260509225017 | 54 | 193 | 4.0 | 11.0 | 0.10 | 0.20 | 0.20 | 90 | 1003.0 |
| 20260509224516 | 54 | 207 | 4.0 | 12.0 | 0.15 | 0.20 | 0.20 | 90 | 1003.0 |
| 20260509224036 | 54 | 194 | 5.0 | 12.0 | 0.17 | 0.20 | 0.20 | 91 | 1003.1 |
| 20260509223516 | 54 | 209 | 4.0 | 9.0 | 0.19 | 0.20 | 0.20 | 91 | 1003.1 |
| 20260509223016 | 54 | 207 | 3.0 | 8.0 | 0.19 | 0.20 | 0.20 | 91 | 1002.9 |
| 20260509222516 | 54 | 188 | 3.0 | 7.0 | 0.20 | 0.20 | 0.20 | 90 | 1002.8 |
| 20260509222016 | 54 | 187 | 2.0 | 5.0 | 0.20 | 0.20 | 0.20 | 89 | 1002.7 |
| 20260509221516 | 54 | 170 | 1.0 | 5.0 | 0.20 | 0.20 | 0.20 | 88 | 1002.8 |
| 20260509221016 | 54 | 167 | 2.0 | 7.0 | 0.20 | 0.20 | 0.20 | 88 | 1002.8 |
| 20260509220536 | 55 | 165 | 3.0 | 14.0 | 0.20 | 0.20 | 0.20 | 86 | 1002.7 |
| 20260509220016 | 56 | 159 | 5.0 | 26.0 | 0.20 | 0.20 | 0.20 | 83 | 1002.7 |
| 20260509215516 | 57 | 207 | 11.0 | 26.0 | 0.19 | 0.19 | 0.19 | 82 | 1004.1 |
| 20260509215016 | 59 | 256 | 9.0 | 19.0 | 0.10 | 0.10 | 0.10 | 82 | 1004.3 |
| 20260509214516 | 60 | 264 | 4.0 | 12.0 | 0.05 | 0.05 | 0.05 | 83 | 1003.8 |
| 20260509214016 | 60 | 235 | 1.0 | 3.0 | 0.03 | 0.03 | 0.03 | 82 | 1003.2 |
| 20260509213516 | 60 | 199 | 1.0 | 5.0 | 0.01 | 0.01 | 0.01 | 80 | 1003.0 |
| 20260509213016 | 61 | 195 | 2.0 | 5.0 | 0.01 | 0.01 | 0.01 | 78 | 1003.0 |
| 20260509212536 | 61 | 180 | 2.0 | 5.0 | 0.00 | 0.00 | 0.00 | 76 | 1002.9 |
| 20260509212016 | 61 | 170 | 2.0 | 8.0 | 0.00 | 0.00 | 0.00 | 75 | 1002.9 |
| 20260509211536 | 61 | 179 | 4.0 | 8.0 | 0.00 | 0.00 | 0.00 | 75 | 1002.7 |
| 20260509211016 | 61 | 185 | 3.0 | 8.0 | 0.00 | 0.00 | 0.00 | 74 | 1002.8 |
| 20260509210516 | 61 | 180 | 3.0 | 11.0 | 0.00 | 0.00 | 0.00 | 74 | 1002.9 |
| 20260509210016 | 61 | 184 | 4.0 | 16.0 | 0.00 | 0.00 | 0.00 | 74 | 1002.7 |
| 20260509205516 | 61 | 197 | 5.0 | 16.0 | 0.00 | 0.00 | 0.00 | 74 | 1002.5 |
| 20260509205016 | 61 | 173 | 5.0 | 17.0 | 0.00 | 0.00 | 0.00 | 73 | 1002.3 |
| 20260509204516 | 62 | 165 | 6.0 | 17.0 | 0.00 | 0.00 | 0.00 | 73 | 1002.1 |
| 20260509204016 | 62 | 141 | 5.0 | 14.0 | 0.00 | 0.00 | 0.00 | 72 | 1002.1 |
| 20260509203515 | 62 | 0 | 5.0 | 13.0 | 0.00 | 0.00 | 0.00 | 71 | 1002.4 |
| 20260509203016 | 62 | 0 | 3.0 | 14.0 | 0.00 | 0.00 | 0.00 | 71 | 1002.5 |
| 20260509202515 | 62 | 1 | 4.0 | 14.0 | 0.00 | 0.00 | 0.00 | 71 | 1002.5 |
| 20260509202036 | 62 | 360 | 4.0 | 12.0 | 0.00 | 0.00 | 0.00 | 71 | 1002.4 |
| 20260509201516 | 62 | 10 | 5.0 | 13.0 | 0.00 | 0.00 | 0.00 | 71 | 1002.3 |
| 20260509201036 | 62 | 14 | 5.0 | 13.0 | 0.00 | 0.00 | 0.00 | 71 | 1002.4 |
| 20260509200516 | 62 | 0 | 5.0 | 12.0 | 0.00 | 0.00 | 0.00 | 71 | 1002.6 |
| 20260509200016 | 62 | 0 | 5.0 | 12.0 | 0.00 | 0.00 | 0.00 | 71 | 1002.7 |
| 20260509195516 | 62 | 0 | 3.0 | 11.0 | 0.00 | 0.00 | 0.00 | 71 | 1002.8 |
| 20260509195015 | 62 | 2 | 4.0 | 12.0 | 0.00 | 0.00 | 0.00 | 72 | 1003.0 |
| 20260509194517 | 61 | 57 | 4.0 | 12.0 | 0.00 | 0.00 | 0.00 | 74 | 1003.2 |
| 20260509194015 | 60 | 0 | 3.0 | 9.0 | 0.00 | 0.00 | 0.00 | 74 | 1003.3 |
| 20260509193515 | 59 | 40 | 3.0 | 10.0 | 0.00 | 0.00 | 0.00 | 75 | 1003.1 |
| 20260509193015 | 59 | 119 | 4.0 | 10.0 | 0.00 | 0.00 | 0.00 | 75 | 1003.2 |
| 20260509192515 | 58 | 145 | 3.0 | 9.0 | 0.00 | 0.00 | 0.00 | 75 | 1003.3 |
| 20260509192016 | 58 | 123 | 2.0 | 7.0 | 0.00 | 0.00 | 0.00 | 76 | 1003.4 |
| 20260509191515 | 57 | 140 | 2.0 | 7.0 | 0.00 | 0.00 | 0.00 | 76 | 1003.6 |
| 20260509191015 | 57 | 137 | 2.0 | 7.0 | 0.00 | 0.00 | 0.00 | 76 | 1003.6 |
| 20260509190515 | 57 | 111 | 3.0 | 7.0 | 0.00 | 0.00 | 0.00 | 77 | 1003.6 |
| 20260509190016 | 56 | 142 | 3.0 | 6.0 | 0.00 | 0.00 | 0.00 | 78 | 1003.5 |
| 20260509185516 | 56 | 71 | 2.0 | 6.0 | 0.00 | 0.00 | 0.00 | 77 | 1003.6 |
| 20260509185015 | 55 | 17 | 1.0 | 4.0 | 0.00 | 0.00 | 0.00 | 77 | 1003.7 |
| 20260509184515 | 55 | 80 | 1.0 | 6.0 | 0.00 | 0.00 | 0.00 | 77 | 1003.7 |
| 20260509184015 | 55 | 104 | 1.0 | 6.0 | 0.00 | 0.00 | 0.00 | 77 | 1003.9 |
| 20260509183515 | 55 | 80 | 1.0 | 4.0 | 0.00 | 0.00 | 0.00 | 77 | 1004.0 |
| 20260509183015 | 55 | 95 | 2.0 | 5.0 | 0.00 | 0.00 | 0.00 | 77 | 1003.9 |
| 20260509182516 | 56 | 128 | 2.0 | 7.0 | 0.00 | 0.00 | 0.00 | 77 | 1004.1 |
| 20260509182015 | 56 | 136 | 2.0 | 8.0 | 0.00 | 0.00 | 0.00 | 76 | 1004.2 |
| 20260509181515 | 56 | 140 | 3.0 | 8.0 | 0.00 | 0.00 | 0.00 | 76 | 1004.2 |
| 20260509181015 | 57 | 101 | 1.0 | 4.0 | 0.00 | 0.00 | 0.00 | 77 | 1004.3 |
| 20260509180515 | 57 | 105 | 1.0 | 5.0 | 0.00 | 0.00 | 0.00 | 76 | 1004.3 |
| 20260509180035 | 57 | 112 | 2.0 | 7.0 | 0.00 | 0.00 | 0.00 | 75 | 1004.3 |
| 20260509175515 | 58 | 125 | 3.0 | 8.0 | 0.00 | 0.00 | 0.00 | 76 | 1004.4 |
| 20260509175015 | 58 | 109 | 3.0 | 8.0 | 0.00 | 0.00 | 0.00 | 77 | 1004.5 |
| 20260509174515 | 58 | 9 | 2.0 | 7.0 | 0.00 | 0.00 | 0.00 | 77 | 1004.6 |
| 20260509174015 | 58 | 24 | 2.0 | 7.0 | 0.00 | 0.00 | 0.00 | 76 | 1004.7 |
| 20260509173515 | 59 | 55 | 2.0 | 6.0 | 0.00 | 0.00 | 0.00 | 77 | 1004.7 |
| 20260509173015 | 59 | 8 | 2.0 | 8.0 | 0.00 | 0.00 | 0.00 | 77 | 1004.8 |
| 20260509172515 | 59 | 25 | 2.0 | 8.0 | 0.00 | 0.00 | 0.00 | 77 | 1004.9 |
| 20260509172056 | 59 | 41 | 2.0 | 6.0 | 0.00 | 0.00 | 0.00 | 77 | 1005.1 |
| 20260509171515 | 58 | 10 | 2.0 | 6.0 | 0.00 | 0.00 | 0.00 | 78 | 1005.2 |
| 20260509171036 | 58 | 131 | 2.0 | 9.0 | 0.00 | 0.00 | 0.00 | 77 | 1005.3 |
| 20260509170515 | 59 | 143 | 3.0 | 9.0 | 0.00 | 0.00 | 0.00 | 75 | 1005.4 |
| 20260509170015 | 59 | 138 | 4.0 | 6.0 | 0.00 | 0.00 | 0.00 | 75 | 1005.4 |
| 20260509165515 | 59 | 5 | 2.0 | 6.0 | 0.00 | 0.00 | 0.00 | 77 | 1005.5 |
| 20260509165015 | 59 | 124 | 2.0 | 6.0 | 0.00 | 0.00 | 0.00 | 77 | 1005.5 |
| 20260509164515 | 58 | 82 | 2.0 | 5.0 | 0.00 | 0.00 | 0.00 | 77 | 1005.4 |
| 20260509164017 | 58 | 100 | 2.0 | 6.0 | 0.00 | 0.00 | 0.00 | 77 | 1005.5 |
| 20260509163515 | 58 | 95 | 2.0 | 7.0 | 0.00 | 0.00 | 0.00 | 77 | 1005.5 |
| 20260509163015 | 58 | 117 | 2.0 | 7.0 | 0.00 | 0.00 | 0.00 | 76 | 1005.4 |
| 20260509162515 | 58 | 94 | 1.0 | 5.0 | 0.00 | 0.00 | 0.00 | 77 | 1005.4 |
| 20260509162015 | 58 | 116 | 2.0 | 4.0 | 0.00 | 0.00 | 0.00 | 77 | 1005.4 |
| 20260509161515 | 58 | 88 | 2.0 | 5.0 | 0.00 | 0.00 | 0.00 | 76 | 1005.5 |
| 20260509161015 | 58 | 82 | 2.0 | 5.0 | 0.00 | 0.00 | 0.00 | 76 | 1005.7 |
| 20260509160515 | 58 | 107 | 2.0 | 5.0 | 0.00 | 0.00 | 0.00 | 75 | 1005.7 |
| 20260509160015 | 58 | 75 | 1.0 | 4.0 | 0.00 | 0.00 | 0.00 | 74 | 1005.7 |
| 20260509155515 | 59 | 95 | 2.0 | 5.0 | 0.00 | 0.00 | 0.00 | 75 | 1005.8 |
| 20260509155015 | 59 | 112 | 2.0 | 5.0 | 0.00 | 0.00 | 0.00 | 75 | 1005.9 |
| 20260509154515 | 59 | 97 | 2.0 | 7.0 | 0.00 | 0.00 | 0.00 | 76 | 1006.0 |
| 20260509154015 | 58 | 131 | 2.0 | 7.0 | 0.00 | 0.00 | 0.00 | 77 | 1006.1 |
| 20260509153515 | 57 | 98 | 2.0 | 4.0 | 0.00 | 0.00 | 0.00 | 77 | 1006.2 |
| 20260509153015 | 57 | 64 | 2.0 | 4.0 | 0.00 | 0.00 | 0.00 | 78 | 1006.4 |
| 20260509152515 | 57 | 77 | 2.0 | 4.0 | 0.00 | 0.00 | 0.00 | 77 | 1006.4 |
| 20260509152015 | 56 | 87 | 1.0 | 4.0 | 0.00 | 0.00 | 0.00 | 77 | 1006.4 |
| 20260509151515 | 56 | 41 | 1.0 | 4.0 | 0.00 | 0.00 | 0.00 | 78 | 1006.5 |
| 20260509151035 | 56 | 71 | 1.0 | 3.0 | 0.00 | 0.00 | 0.00 | 78 | 1006.5 |
| 20260509150515 | 55 | 89 | 1.0 | 4.0 | 0.00 | 0.00 | 0.00 | 80 | 1006.5 |
| 20260509150015 | 55 | 80 | 1.0 | 4.0 | 0.00 | 0.00 | 0.00 | 80 | 1006.5 |
| 20260509145515 | 54 | 93 | 1.0 | 4.0 | 0.00 | 0.00 | 0.00 | 81 | 1006.4 |
| 20260509145015 | 53 | 126 | 2.0 | 4.0 | 0.00 | 0.00 | 0.00 | 82 | 1006.3 |
| 20260509144535 | 52 | 45 | 1.0 | 4.0 | 0.00 | 0.00 | 0.00 | 83 | 1006.4 |
| 20260509144015 | 51 | 59 | 1.0 | 3.0 | 0.00 | 0.00 | 0.00 | 83 | 1006.5 |
| 20260509143515 | 51 | 65 | 1.0 | 3.0 | 0.00 | 0.00 | 0.00 | 84 | 1006.5 |
| 20260509143015 | 50 | 8 | 1.0 | 4.0 | 0.00 | 0.00 | 0.00 | 84 | 1006.6 |
| 20260509142535 | 50 | 86 | 1.0 | 4.0 | 0.00 | 0.00 | 0.00 | 83 | 1006.7 |
| 20260509142015 | 50 | 72 | 1.0 | 4.0 | 0.00 | 0.00 | 0.00 | 83 | 1006.7 |
| 20260509141515 | 50 | 87 | 1.0 | 3.0 | 0.00 | 0.00 | 0.00 | 83 | 1006.8 |
| 20260509141015 | 50 | 59 | 1.0 | 3.0 | 0.00 | 0.00 | 0.00 | 84 | 1006.9 |
| 20260509140515 | 49 | 71 | 1.0 | 3.0 | 0.00 | 0.00 | 0.00 | 84 | 1006.9 |
| 20260509140015 | 49 | 77 | 1.0 | 3.0 | 0.00 | 0.00 | 0.00 | 83 | 1006.9 |
| 20260509135515 | 49 | 108 | 1.0 | 4.0 | 0.00 | 0.00 | 0.00 | 83 | 1007.0 |
| 20260509135015 | 49 | 145 | 1.0 | 4.0 | 0.00 | 0.00 | 0.00 | 83 | 1007.1 |
| 20260509134555 | 49 | 132 | 1.0 | 3.0 | 0.00 | 0.00 | 0.00 | 83 | 1007.1 |
| 20260509134015 | 49 | 92 | 1.0 | 3.0 | 0.00 | 0.00 | 0.00 | 83 | 1007.2 |
| 20260509133516 | 49 | 65 | 1.0 | 3.0 | 0.00 | 0.00 | 0.00 | 83 | 1007.1 |
| 20260509133015 | 49 | 102 | 1.0 | 4.0 | 0.00 | 0.00 | 0.00 | 83 | 1007.1 |
| 20260509132535 | 49 | 68 | 1.0 | 4.0 | 0.00 | 0.00 | 0.00 | 83 | 1007.1 |
| 20260509132015 | 49 | 75 | 1.0 | 4.0 | 0.00 | 0.00 | 0.00 | 83 | 1007.1 |
| 20260509131515 | 49 | 98 | 1.0 | 4.0 | 0.00 | 0.00 | 0.00 | 84 | 1007.2 |
| 20260509131015 | 49 | 101 | 0.0 | 2.0 | 0.00 | 0.00 | 0.00 | 84 | 1007.3 |
| 20260509130515 | 48 | 0.0 | 2.0 | 0.00 | 0.00 | 0.00 | 84 | 1007.3 | |
| 20260509130056 | 48 | 85 | 0.0 | 2.0 | 0.00 | 0.00 | 0.00 | 84 | 1007.2 |
| 20260509125514 | 48 | 74 | 0.0 | 2.0 | 0.00 | 0.00 | 0.00 | 84 | 1007.2 |
| 20260509125014 | 48 | 0.0 | 0.0 | 0.00 | 0.00 | 0.00 | 85 | 1007.2 | |
| 20260509124555 | 47 | 0.0 | 2.0 | 0.00 | 0.00 | 0.00 | 85 | 1007.2 | |
| 20260509124015 | 47 | 104 | 0.0 | 2.0 | 0.00 | 0.00 | 0.00 | 85 | 1007.3 |
| 20260509123515 | 47 | 107 | 0.0 | 3.0 | 0.00 | 0.00 | 0.00 | 85 | 1007.3 |
| 20260509123015 | 46 | 26 | 1.0 | 3.0 | 0.00 | 0.00 | 0.00 | 85 | 1007.4 |
| 20260509122515 | 46 | 24 | 1.0 | 3.0 | 0.00 | 0.00 | 0.00 | 85 | 1007.4 |
| 20260509122014 | 45 | 16 | 0.0 | 3.0 | 0.00 | 0.00 | 0.00 | 85 | 1007.4 |
| 20260509121515 | 45 | 97 | 0.0 | 2.0 | 0.00 | 0.00 | 0.00 | 84 | 1007.4 |
| 20260509121014 | 45 | 94 | 0.0 | 2.0 | 0.00 | 0.00 | 0.00 | 84 | 1007.4 |
| 20260509120515 | 45 | 83 | 0.0 | 4.0 | 0.00 | 0.00 | 0.00 | 84 | 1007.4 |
| 20260509120034 | 44 | 92 | 1.0 | 4.0 | 0.00 | 0.00 | 0.00 | 84 | 1007.4 |
| 20260509115514 | 44 | 101 | 0.0 | 3.0 | 0.00 | 0.01 | 0.00 | 85 | 1007.3 |
| 20260509115016 | 44 | 115 | 0.0 | 5.0 | 0.00 | 0.01 | 0.00 | 85 | 1007.3 |
| 20260509114516 | 44 | 79 | 0.0 | 5.0 | 0.00 | 0.01 | 0.00 | 86 | 1007.3 |
| 20260509114016 | 44 | 85 | 1.0 | 6.0 | 0.00 | 0.02 | 0.00 | 87 | 1007.3 |
| 20260509113516 | 43 | 79 | 1.0 | 6.0 | 0.00 | 0.03 | 0.00 | 88 | 1007.3 |
| 20260509113016 | 43 | 81 | 2.0 | 5.0 | 0.00 | 0.05 | 0.00 | 89 | 1007.2 |
| 20260509112516 | 43 | 70 | 1.0 | 4.0 | 0.00 | 0.05 | 0.00 | 90 | 1007.3 |
| 20260509112056 | 42 | 80 | 1.0 | 4.0 | 0.00 | 0.05 | 0.00 | 91 | 1007.3 |
| 20260509111516 | 42 | 78 | 1.0 | 2.0 | 0.00 | 0.05 | 0.00 | 91 | 1007.3 |
| 20260509111016 | 42 | 82 | 0.0 | 3.0 | 0.00 | 0.05 | 0.00 | 92 | 1007.3 |
| 20260509110516 | 41 | 73 | 1.0 | 3.0 | 0.00 | 0.05 | 0.00 | 92 | 1007.3 |
| 20260509110037 | 41 | 90 | 0.0 | 1.0 | 0.00 | 0.05 | 0.00 | 91 | 1007.4 |
| 20260509105516 | 41 | 0.0 | 0.0 | 0.00 | 0.05 | 0.00 | 91 | 1007.3 | |
| 20260509105016 | 41 | 0.0 | 0.0 | 0.00 | 0.05 | 0.00 | 91 | 1007.3 | |
| 20260509104556 | 41 | 0.0 | 0.0 | 0.00 | 0.05 | 0.00 | 91 | 1007.3 | |
| 20260509104036 | 41 | 0.0 | 0.0 | 0.00 | 0.05 | 0.00 | 91 | 1007.4 | |
| 20260509103516 | 41 | 0.0 | 0.0 | 0.00 | 0.05 | 0.00 | 91 | 1007.3 | |
| 20260509103018 | 41 | 0.0 | 0.0 | 0.00 | 0.05 | 0.00 | 91 | 1007.3 | |
| 20260509102516 | 41 | 0.0 | 0.0 | 0.00 | 0.05 | 0.00 | 91 | 1007.4 | |
| 20260509102016 | 41 | 0.0 | 0.0 | 0.00 | 0.05 | 0.00 | 91 | 1007.3 | |
| 20260509101516 | 41 | 0.0 | 0.0 | 0.00 | 0.05 | 0.00 | 91 | 1007.4 | |
| 20260509101016 | 41 | 0.0 | 0.0 | 0.00 | 0.05 | 0.00 | 91 | 1007.4 | |
| 20260509100516 | 41 | 0.0 | 0.0 | 0.00 | 0.05 | 0.00 | 91 | 1007.4 | |
| 20260509100016 | 41 | 0.0 | 0.0 | 0.00 | 0.05 | 0.00 | 91 | 1007.5 | |
| 20260509095516 | 42 | 0.0 | 0.0 | 0.00 | 0.05 | 0.00 | 91 | 1007.4 | |
| 20260509095036 | 42 | 0.0 | 0.0 | 0.00 | 0.05 | 0.00 | 92 | 1007.5 | |
| 20260509094536 | 42 | 0.0 | 0.0 | 0.00 | 0.05 | 0.00 | 92 | 1007.5 | |
| 20260509094016 | 42 | 0.0 | 2.0 | 0.00 | 0.05 | 0.00 | 92 | 1007.6 | |
| 20260509093516 | 41 | 320 | 0.0 | 2.0 | 0.00 | 0.05 | 0.00 | 92 | 1007.6 |
| 20260509093016 | 41 | 97 | 1.0 | 2.0 | 0.00 | 0.05 | 0.00 | 92 | 1007.5 |
| 20260509092516 | 41 | 101 | 0.0 | 1.0 | 0.00 | 0.05 | 0.00 | 92 | 1007.5 |
| 20260509092036 | 41 | 0.0 | 0.0 | 0.00 | 0.05 | 0.00 | 92 | 1007.6 | |
| 20260509091516 | 41 | 0.0 | 0.0 | 0.00 | 0.05 | 0.00 | 92 | 1007.7 | |
| 20260509091016 | 41 | 0.0 | 0.0 | 0.00 | 0.05 | 0.00 | 92 | 1007.6 | |
| 20260509090516 | 41 | 0.0 | 0.0 | 0.00 | 0.05 | 0.00 | 92 | 1007.6 | |
| 20260509090016 | 41 | 0.0 | 0.0 | 0.00 | 0.05 | 0.00 | 92 | 1007.6 | |
| 20260509085516 | 41 | 0.0 | 0.0 | 0.00 | 0.05 | 0.00 | 92 | 1007.6 | |
| 20260509085016 | 41 | 0.0 | 0.0 | 0.00 | 0.05 | 0.00 | 92 | 1007.7 | |
| 20260509084516 | 41 | 0.0 | 0.0 | 0.00 | 0.05 | 0.00 | 92 | 1007.7 | |
| 20260509084058 | 41 | 0.0 | 0.0 | 0.00 | 0.05 | 0.00 | 92 | 1007.8 | |
| 20260509083516 | 41 | 0.0 | 0.0 | 0.00 | 0.05 | 0.00 | 92 | 1007.8 | |
| 20260509083016 | 40 | 0.0 | 0.0 | 0.00 | 0.05 | 0.00 | 91 | 1007.7 | |
| 20260509082536 | 40 | 0.0 | 0.0 | 0.00 | 0.05 | 0.00 | 92 | 1007.8 | |
| 20260509082016 | 40 | 0.0 | 0.0 | 0.00 | 0.05 | 0.00 | 92 | 1007.9 | |
| 20260509081516 | 40 | 0.0 | 0.0 | 0.00 | 0.05 | 0.00 | 91 | 1007.9 | |
| 20260509081016 | 40 | 0.0 | 0.0 | 0.00 | 0.05 | 0.00 | 92 | 1007.9 | |
| 20260509080536 | 40 | 0.0 | 0.0 | 0.00 | 0.05 | 0.00 | 91 | 1007.9 | |
| 20260509080016 | 40 | 0.0 | 0.0 | 0.00 | 0.05 | 0.00 | 91 | 1007.9 | |
| 20260509075536 | 40 | 0.0 | 0.0 | 0.00 | 0.05 | 0.00 | 91 | 1007.9 | |
| 20260509075036 | 40 | 0.0 | 0.0 | 0.00 | 0.05 | 0.00 | 91 | 1007.9 | |
| 20260509074516 | 40 | 0.0 | 0.0 | 0.00 | 0.05 | 0.00 | 91 | 1007.9 | |
| 20260509074016 | 40 | 0.0 | 0.0 | 0.00 | 0.05 | 0.00 | 91 | 1008.0 | |
| 20260509073516 | 39 | 0.0 | 0.0 | 0.00 | 0.05 | 0.00 | 91 | 1007.9 | |
| 20260509073016 | 39 | 0.0 | 0.0 | 0.00 | 0.05 | 0.00 | 90 | 1007.9 | |
| 20260509072517 | 39 | 0.0 | 0.0 | 0.00 | 0.05 | 0.00 | 90 | 1008.0 | |
| 20260509072016 | 39 | 0.0 | 0.0 | 0.00 | 0.05 | 0.00 | 90 | 1008.0 | |
| 20260509071516 | 40 | 0.0 | 0.0 | 0.00 | 0.05 | 0.00 | 90 | 1007.9 | |
| 20260509071016 | 40 | 0.0 | 0.0 | 0.00 | 0.05 | 0.00 | 90 | 1008.0 | |
| 20260509070516 | 40 | 0.0 | 0.0 | 0.00 | 0.05 | 0.00 | 90 | 1007.9 | |
| 20260509070016 | 40 | 0.0 | 0.0 | 0.00 | 0.05 | 0.00 | 90 | 1008.0 | |
| 20260509065516 | 40 | 0.0 | 0.0 | 0.00 | 0.05 | 0.00 | 90 | 1008.0 | |
| 20260509065016 | 40 | 0.0 | 0.0 | 0.00 | 0.05 | 0.00 | 90 | 1008.2 | |
| 20260509064536 | 40 | 0.0 | 0.0 | 0.00 | 0.05 | 0.00 | 90 | 1008.2 | |
| 20260509064017 | 40 | 0.0 | 0.0 | 0.00 | 0.05 | 0.00 | 90 | 1008.3 | |
| 20260509063536 | 40 | 0.0 | 0.0 | 0.00 | 0.05 | 0.00 | 90 | 1008.4 | |
| 20260509063016 | 40 | 0.0 | 0.0 | 0.00 | 0.05 | 0.00 | 89 | 1008.5 | |
| 20260509062516 | 40 | 0.0 | 0.0 | 0.00 | 0.05 | 0.00 | 89 | 1008.6 | |
| 20260509062016 | 40 | 0.0 | 0.0 | 0.00 | 0.05 | 0.00 | 89 | 1008.7 | |
| 20260509061516 | 40 | 0.0 | 0.0 | 0.00 | 0.05 | 0.00 | 89 | 1008.7 | |
| 20260509061036 | 40 | 0.0 | 0.0 | 0.00 | 0.05 | 0.00 | 89 | 1008.8 | |
| 20260509060516 | 40 | 0.0 | 0.0 | 0.00 | 0.05 | 0.00 | 89 | 1008.8 | |
| 20260509060016 | 40 | 0.0 | 0.0 | 0.00 | 0.05 | 0.00 | 89 | 1008.9 | |
| 20260509055516 | 40 | 0.0 | 0.0 | 0.00 | 0.05 | 0.00 | 88 | 1009.0 | |
| 20260509055016 | 40 | 0.0 | 0.0 | 0.00 | 0.05 | 0.00 | 88 | 1009.1 | |
| 20260509054516 | 40 | 0.0 | 0.0 | 0.00 | 0.05 | 0.00 | 88 | 1009.2 | |
| 20260509054036 | 40 | 0.0 | 0.0 | 0.00 | 0.05 | 0.00 | 88 | 1009.2 | |
| 20260509053516 | 40 | 0.0 | 0.0 | 0.00 | 0.05 | 0.00 | 87 | 1009.3 | |
| 20260509053016 | 40 | 0.0 | 0.0 | 0.00 | 0.05 | 0.00 | 87 | 1009.4 | |
| 20260509052516 | 40 | 0.0 | 0.0 | 0.00 | 0.05 | 0.00 | 87 | 1009.3 | |
| 20260509052016 | 41 | 0.0 | 0.0 | 0.00 | 0.05 | 0.00 | 86 | 1009.4 | |
| 20260509051516 | 41 | 0.0 | 0.0 | 0.00 | 0.05 | 0.00 | 86 | 1009.4 | |
| 20260509051016 | 41 | 0.0 | 0.0 | 0.00 | 0.05 | 0.00 | 86 | 1009.5 | |
| 20260509050516 | 41 | 0.0 | 0.0 | 0.00 | 0.05 | 0.00 | 86 | 1009.4 | |
| 20260509050015 | 41 | 0.0 | 0.0 | 0.00 | 0.05 | 0.00 | 86 | 1009.5 | |
| 20260509045516 | 41 | 0.0 | 0.0 | 0.00 | 0.05 | 0.00 | 85 | 1009.4 | |
| 20260509045016 | 41 | 0.0 | 0.0 | 0.00 | 0.05 | 0.00 | 85 | 1009.4 | |
| 20260509044516 | 42 | 0.0 | 0.0 | 0.00 | 0.05 | 0.00 | 85 | 1009.5 | |
| 20260509044016 | 42 | 0.0 | 0.0 | 0.00 | 0.05 | 0.00 | 85 | 1009.5 | |
| 20260509043516 | 42 | 0.0 | 0.0 | 0.00 | 0.05 | 0.00 | 84 | 1009.5 | |
| 20260509043036 | 42 | 0.0 | 0.0 | 0.00 | 0.05 | 0.00 | 84 | 1009.5 | |
| 20260509042536 | 42 | 0.0 | 0.0 | 0.00 | 0.05 | 0.00 | 84 | 1009.5 | |
| 20260509042017 | 42 | 0.0 | 0.0 | 0.00 | 0.05 | 0.00 | 83 | 1009.4 | |
| 20260509041516 | 42 | 0.0 | 0.0 | 0.00 | 0.05 | 0.00 | 83 | 1009.4 | |
| 20260509041015 | 43 | 0.0 | 0.0 | 0.00 | 0.05 | 0.00 | 82 | 1009.4 | |
| 20260509040515 | 43 | 0.0 | 0.0 | 0.00 | 0.05 | 0.00 | 82 | 1009.4 | |
| 20260509040015 | 43 | 0.0 | 0.0 | 0.00 | 0.05 | 0.05 | 82 | 1009.4 | |
| 20260509035516 | 43 | 0.0 | 0.0 | 0.00 | 0.05 | 0.05 | 81 | 1009.5 | |
| 20260509035017 | 43 | 0.0 | 0.0 | 0.00 | 0.05 | 0.05 | 81 | 1009.5 | |
| 20260509034516 | 44 | 0.0 | 0.0 | 0.00 | 0.05 | 0.05 | 81 | 1009.5 | |
| 20260509034037 | 44 | 0.0 | 0.0 | 0.00 | 0.05 | 0.05 | 80 | 1009.6 |